Time;durP1;ratioP1;P1;durP2;ratioP2;P2;SDS_P1;SDS_P2;PMS_P1;PMS_P2;Temp;Humidity;BMP_temperature;BMP_pressure;BME280_temperature;BME280_humidity;BME280_pressure;Samples;Min_cycle;Max_cycle;Signal;HPM_P1;HPM_P2
2023/08/01 00:00:57;;;;;;;10.55;4.13;;;;;;;;;;5059205;28;20031;-73
2023/08/01 00:03:22;;;;;;;7.13;4.00;;;;;;;;;;5076009;28;20020;-74
2023/08/01 00:05:47;;;;;;;7.95;4.13;;;;;;;;;;5058683;28;20089;-73
2023/08/01 00:08:13;;;;;;;7.15;3.92;;;;;;;;;;5076266;28;20020;-73
2023/08/01 00:10:39;;;;;;;6.88;4.20;;;;;;;;;;5075759;28;20111;-74
2023/08/01 00:13:05;;;;;;;8.07;4.85;;;;;;;;;;5059212;28;20020;-74
2023/08/01 00:15:30;;;;;;;14.48;4.05;;;;;;;;;;5094091;28;20073;-74
2023/08/01 00:17:55;;;;;;;5.18;3.20;;;;;;;;;;5075214;28;20462;-73
2023/08/01 00:20:21;;;;;;;9.80;3.70;;;;;;;;;;5093754;28;20085;-74
2023/08/01 00:22:46;;;;;;;5.97;3.67;;;;;;;;;;5075874;28;20028;-73
2023/08/01 00:25:11;;;;;;;8.23;3.70;;;;;;;;;;5076282;28;20412;-74
2023/08/01 00:27:37;;;;;;;11.15;5.15;;;;;;;;;;5093809;28;20062;-74
2023/08/01 00:30:02;;;;;;;7.70;3.58;;;;;;;;;;5075241;28;20020;-74
2023/08/01 00:32:27;;;;;;;11.85;4.68;;;;;;;;;;5094007;28;20024;-74
2023/08/01 00:34:53;;;;;;;11.15;4.18;;;;;;;;;;5094011;28;20020;-74
2023/08/01 00:37:18;;;;;;;9.98;4.63;;;;;;;;;;5075433;28;20020;-74
2023/08/01 00:39:43;;;;;;;6.80;3.95;;;;;;;;;;5075663;28;20165;-74
2023/08/01 00:42:08;;;;;;;7.95;4.13;;;;;;;;;;5075567;28;20027;-74
2023/08/01 00:44:34;;;;;;;6.75;3.75;;;;;;;;;;5094122;28;20446;-74
2023/08/01 00:46:59;;;;;;;7.03;4.03;;;;;;;;;;5076153;28;20047;-74
2023/08/01 00:49:25;;;;;;;8.20;4.32;;;;;;;;;;5080345;28;20026;-74
2023/08/01 00:51:50;;;;;;;9.55;4.80;;;;;;;;;;5079396;28;20020;-74
2023/08/01 00:54:16;;;;;;;8.80;4.15;;;;;;;;;;5098570;28;20020;-73
2023/08/01 00:56:42;;;;;;;12.27;4.07;;;;;;;;;;5079600;28;20016;-74
2023/08/01 00:59:07;;;;;;;5.95;3.83;;;;;;;;;;5079325;28;20512;-74
2023/08/01 01:01:32;;;;;;;9.10;3.70;;;;;;;;;;5098861;28;20028;-73
2023/08/01 01:03:57;;;;;;;8.25;3.30;;;;;;;;;;5080669;28;20024;-75
2023/08/01 01:06:34;;;;;;;6.50;4.07;;;;;;;;;;5079143;28;20033;-74
2023/08/01 01:09:00;;;;;;;5.60;3.90;;;;;;;;;;5078640;28;20031;-74
2023/08/01 01:11:25;;;;;;;7.82;3.85;;;;;;;;;;5078997;28;20031;-74
2023/08/01 01:13:53;;;;;;;6.15;3.50;;;;;;;;;;5079139;28;20485;-74
2023/08/01 01:16:19;;;;;;;7.78;3.70;;;;;;;;;;5079720;28;20389;-74
2023/08/01 01:18:45;;;;;;;7.75;3.30;;;;;;;;;;5079175;28;20031;-74
2023/08/01 01:21:10;;;;;;;10.43;4.38;;;;;;;;;;5078356;28;20020;-74
2023/08/01 01:23:35;;;;;;;8.00;3.90;;;;;;;;;;5096928;28;20109;-74
2023/08/01 01:26:02;;;;;;;7.47;4.07;;;;;;;;;;5078855;28;20027;-74
2023/08/01 01:28:28;;;;;;;7.20;3.58;;;;;;;;;;5096989;28;20024;-74
2023/08/01 01:30:53;;;;;;;8.00;3.90;;;;;;;;;;5078855;28;20035;-74
2023/08/01 01:33:18;;;;;;;6.50;3.72;;;;;;;;;;5078785;28;20020;-74
2023/08/01 01:35:44;;;;;;;9.35;3.92;;;;;;;;;;5096346;28;20024;-74
2023/08/01 01:38:09;;;;;;;10.05;4.40;;;;;;;;;;5062094;28;20032;-74
2023/08/01 01:40:34;;;;;;;13.90;4.55;;;;;;;;;;5078653;28;20028;-74
2023/08/01 01:43:00;;;;;;;12.55;4.38;;;;;;;;;;5078631;28;20378;-74
2023/08/01 01:45:26;;;;;;;6.38;3.58;;;;;;;;;;5061667;28;20500;-74
2023/08/01 01:47:51;;;;;;;11.35;5.00;;;;;;;;;;5078449;28;20039;-74
2023/08/01 01:50:17;;;;;;;7.45;3.85;;;;;;;;;;5077929;28;20404;-73
2023/08/01 01:52:43;;;;;;;8.73;3.85;;;;;;;;;;5078480;28;20086;-74
2023/08/01 01:55:08;;;;;;;7.25;4.15;;;;;;;;;;5096317;28;20436;-73
2023/08/01 01:57:36;;;;;;;8.75;4.03;;;;;;;;;;5096227;28;20432;-74
2023/08/01 02:00:01;;;;;;;7.18;4.00;;;;;;;;;;5061638;28;20024;-74
2023/08/01 02:02:28;;;;;;;9.43;4.80;;;;;;;;;;5061526;28;20048;-74
2023/08/01 02:04:53;;;;;;;7.72;4.70;;;;;;;;;;5096227;28;20027;-74
2023/08/01 02:07:18;;;;;;;11.27;5.32;;;;;;;;;;5077975;28;20027;-74
2023/08/01 02:09:43;;;;;;;9.13;5.35;;;;;;;;;;5092990;28;20050;-74
2023/08/01 02:12:09;;;;;;;10.68;4.80;;;;;;;;;;5058349;28;20401;-74
2023/08/01 02:14:35;;;;;;;14.75;5.90;;;;;;;;;;5070879;28;20012;-74
2023/08/01 02:17:01;;;;;;;15.68;5.88;;;;;;;;;;5076907;28;20393;-74
2023/08/01 02:19:26;;;;;;;9.40;5.47;;;;;;;;;;5077682;28;20035;-74
2023/08/01 02:21:52;;;;;;;13.25;5.97;;;;;;;;;;5095629;28;20027;-74
2023/08/01 02:24:18;;;;;;;14.27;6.10;;;;;;;;;;5095766;28;20023;-74
2023/08/01 02:26:43;;;;;;;11.75;5.85;;;;;;;;;;5095703;28;20028;-74
2023/08/01 02:29:08;;;;;;;11.25;7.15;;;;;;;;;;5060324;28;20024;-74
2023/08/01 02:31:35;;;;;;;15.80;7.50;;;;;;;;;;5095559;28;20044;-74
2023/08/01 02:34:00;;;;;;;9.80;6.00;;;;;;;;;;5077819;28;20023;-74
2023/08/01 02:36:25;;;;;;;12.05;6.15;;;;;;;;;;5095489;28;20020;-74
2023/08/01 02:38:51;;;;;;;11.00;6.28;;;;;;;;;;5095450;28;20020;-74
2023/08/01 02:41:16;;;;;;;12.27;6.50;;;;;;;;;;5094853;28;20092;-74
2023/08/01 02:43:41;;;;;;;18.15;5.93;;;;;;;;;;5094930;28;20023;-74
2023/08/01 02:46:06;;;;;;;12.65;6.30;;;;;;;;;;5078021;28;20032;-74
2023/08/01 02:48:35;;;;;;;11.18;6.20;;;;;;;;;;5095059;28;20068;-74
2023/08/01 02:51:01;;;;;;;8.35;5.32;;;;;;;;;;5060309;28;20016;-74
2023/08/01 02:53:26;;;;;;;11.00;5.65;;;;;;;;;;5076743;28;20020;-74
2023/08/01 02:55:51;;;;;;;10.55;5.28;;;;;;;;;;5094438;28;20023;-74
2023/08/01 02:58:17;;;;;;;10.48;4.90;;;;;;;;;;5076750;28;20031;-74
2023/08/01 03:00:42;;;;;;;9.10;5.25;;;;;;;;;;5095127;28;20082;-74
2023/08/01 03:03:07;;;;;;;10.38;5.13;;;;;;;;;;5094751;28;20055;-74
2023/08/01 03:05:35;;;;;;;8.45;4.55;;;;;;;;;;5095017;28;20024;-74
2023/08/01 03:08:00;;;;;;;9.82;4.68;;;;;;;;;;5094385;28;20020;-74
2023/08/01 03:10:26;;;;;;;7.88;4.95;;;;;;;;;;5075533;28;20035;-74
2023/08/01 03:12:51;;;;;;;7.55;4.50;;;;;;;;;;5076325;28;20031;-74
2023/08/01 03:15:17;;;;;;;6.75;3.92;;;;;;;;;;5076672;28;20037;-74
2023/08/01 03:17:42;;;;;;;7.57;4.78;;;;;;;;;;5076492;28;20116;-74
2023/08/01 03:20:10;;;;;;;7.70;4.13;;;;;;;;;;5075902;28;20042;-74
2023/08/01 03:22:39;;;;;;;7.88;4.22;;;;;;;;;;5060153;28;20124;-74
2023/08/01 03:25:07;;;;;;;6.43;4.22;;;;;;;;;;5075697;28;20027;-74
2023/08/01 03:27:33;;;;;;;9.48;4.28;;;;;;;;;;5059628;28;20370;-74
2023/08/01 03:29:58;;;;;;;9.20;4.53;;;;;;;;;;5076065;28;20027;-74
2023/08/01 03:32:23;;;;;;;11.35;3.92;;;;;;;;;;5076210;28;20047;-74
2023/08/01 03:34:52;;;;;;;9.50;5.15;;;;;;;;;;5075829;28;20024;-74
2023/08/01 03:37:17;;;;;;;8.93;4.10;;;;;;;;;;5094088;28;20035;-74
2023/08/01 03:39:43;;;;;;;6.53;4.07;;;;;;;;;;5076001;28;20018;-74
2023/08/01 03:42:08;;;;;;;10.13;4.22;;;;;;;;;;5093639;28;20046;-74
2023/08/01 03:44:34;;;;;;;7.80;3.63;;;;;;;;;;5093658;28;20031;-74
2023/08/01 03:46:59;;;;;;;7.03;4.00;;;;;;;;;;5075247;28;20120;-74
2023/08/01 03:49:27;;;;;;;8.63;4.22;;;;;;;;;;5093880;28;20099;-74
2023/08/01 03:51:52;;;;;;;10.65;4.70;;;;;;;;;;5076135;28;20123;-73
2023/08/01 03:54:17;;;;;;;9.05;4.13;;;;;;;;;;5093828;28;20103;-74
2023/08/01 03:56:44;;;;;;;9.93;4.28;;;;;;;;;;5093578;28;20027;-74
2023/08/01 03:59:13;;;;;;;9.10;4.55;;;;;;;;;;5075650;28;20017;-74
2023/08/01 04:01:39;;;;;;;6.80;3.65;;;;;;;;;;5075242;28;20031;-74
2023/08/01 04:04:06;;;;;;;9.40;4.35;;;;;;;;;;5093456;28;20028;-74
2023/08/01 04:06:31;;;;;;;6.90;3.85;;;;;;;;;;5059667;28;20119;-74
2023/08/01 04:08:57;;;;;;;8.30;3.97;;;;;;;;;;5075379;28;20487;-74
2023/08/01 04:11:22;;;;;;;13.00;4.28;;;;;;;;;;5107290;22;20094;-74
2023/08/01 04:13:48;;;;;;;10.27;4.75;;;;;;;;;;5092652;28;20020;-74
2023/08/01 04:16:13;;;;;;;10.18;4.50;;;;;;;;;;5093011;28;20027;-74
2023/08/01 04:18:38;;;;;;;16.38;5.20;;;;;;;;;;5093150;28;20028;-73
2023/08/01 04:21:04;;;;;;;10.80;3.80;;;;;;;;;;5113162;28;20028;-74
2023/08/01 04:23:29;;;;;;;7.90;3.58;;;;;;;;;;5116697;28;20100;-74
2023/08/01 04:25:54;;;;;;;7.63;4.03;;;;;;;;;;5117451;28;20384;-74
2023/08/01 04:28:19;;;;;;;9.60;3.55;;;;;;;;;;5099285;28;20019;-74
2023/08/01 04:30:51;;;;;;;9.52;3.95;;;;;;;;;;5117305;28;20020;-74
2023/08/01 04:33:17;;;;;;;7.90;4.15;;;;;;;;;;5099423;28;20159;-73
2023/08/01 04:35:42;;;;;;;7.63;4.07;;;;;;;;;;5116974;28;20055;-74
2023/08/01 04:38:08;;;;;;;7.28;3.63;;;;;;;;;;5118074;28;20028;-74
2023/08/01 04:40:34;;;;;;;11.60;3.85;;;;;;;;;;5117298;28;20469;-74
2023/08/01 04:43:01;;;;;;;7.95;3.67;;;;;;;;;;5098853;28;20030;-74
2023/08/01 04:45:26;;;;;;;7.88;3.65;;;;;;;;;;5105033;28;20020;-74
2023/08/01 04:47:51;;;;;;;7.60;3.70;;;;;;;;;;5078681;28;20501;-74
2023/08/01 04:50:17;;;;;;;6.10;3.13;;;;;;;;;;5096954;28;20492;-74
2023/08/01 04:52:45;;;;;;;7.82;3.42;;;;;;;;;;5096535;28;20027;-74
2023/08/01 04:55:10;;;;;;;5.78;3.20;;;;;;;;;;5096482;28;20099;-74
2023/08/01 04:57:35;;;;;;;5.65;3.03;;;;;;;;;;5078362;28;20112;-74
2023/08/01 05:00:01;;;;;;;5.18;2.70;;;;;;;;;;5096144;28;20496;-74
2023/08/01 05:02:26;;;;;;;8.43;2.97;;;;;;;;;;5114698;28;20023;-74
2023/08/01 05:04:52;;;;;;;5.88;3.08;;;;;;;;;;5098509;28;20028;-74
2023/08/01 05:07:17;;;;;;;11.38;3.38;;;;;;;;;;5117005;28;20406;-74
2023/08/01 05:09:42;;;;;;;6.20;3.03;;;;;;;;;;5098375;28;20024;-74
2023/08/01 05:12:08;;;;;;;4.18;2.53;;;;;;;;;;5096564;28;20036;-74
2023/08/01 05:14:34;;;;;;;7.43;3.35;;;;;;;;;;5096215;28;20041;-75
2023/08/01 05:16:59;;;;;;;7.55;3.00;;;;;;;;;;5078636;28;20016;-75
2023/08/01 05:19:24;;;;;;;5.68;3.65;;;;;;;;;;5095919;28;20028;-75
2023/08/01 05:21:50;;;;;;;6.63;3.00;;;;;;;;;;5078045;28;20027;-74
2023/08/01 05:24:15;;;;;;;5.82;2.70;;;;;;;;;;5096777;28;20023;-74
2023/08/01 05:26:40;;;;;;;5.57;3.08;;;;;;;;;;5098372;28;20077;-74
2023/08/01 05:29:06;;;;;;;6.25;3.10;;;;;;;;;;5116275;28;20030;-75
2023/08/01 05:31:31;;;;;;;7.07;2.97;;;;;;;;;;5098262;28;20023;-75
2023/08/01 05:33:56;;;;;;;4.32;2.63;;;;;;;;;;5097390;28;20024;-75
2023/08/01 05:36:22;;;;;;;6.18;2.70;;;;;;;;;;5098046;28;20385;-76
2023/08/01 05:38:47;;;;;;;4.85;2.35;;;;;;;;;;5116257;28;20062;-75
2023/08/01 05:41:12;;;;;;;4.25;2.45;;;;;;;;;;5116146;28;20076;-75
2023/08/01 05:43:37;;;;;;;3.85;2.30;;;;;;;;;;5115787;28;20032;-75
2023/08/01 05:46:03;;;;;;;5.10;2.55;;;;;;;;;;5116173;28;20030;-74
2023/08/01 05:48:28;;;;;;;5.10;2.70;;;;;;;;;;5098009;28;20104;-75
2023/08/01 05:50:55;;;;;;;5.05;2.38;;;;;;;;;;5115688;28;20020;-75
2023/08/01 05:53:20;;;;;;;5.10;2.33;;;;;;;;;;5116226;28;20023;-74
2023/08/01 05:55:46;;;;;;;4.60;2.67;;;;;;;;;;5115591;28;20030;-74
2023/08/01 05:58:11;;;;;;;5.32;2.63;;;;;;;;;;5115186;28;20461;-74
2023/08/01 06:00:36;;;;;;;7.13;3.03;;;;;;;;;;5115851;28;20027;-74
2023/08/01 06:03:02;;;;;;;6.30;2.83;;;;;;;;;;5115305;28;20012;-74
2023/08/01 06:05:28;;;;;;;5.80;2.72;;;;;;;;;;5115714;28;20442;-74
2023/08/01 06:07:53;;;;;;;7.07;3.47;;;;;;;;;;5097786;28;20027;-73
2023/08/01 06:10:18;;;;;;;4.65;2.53;;;;;;;;;;5115500;28;20457;-74
2023/08/01 06:12:43;;;;;;;4.10;2.47;;;;;;;;;;5096864;28;20091;-75
2023/08/01 06:15:09;;;;;;;6.38;2.42;;;;;;;;;;5096723;28;20020;-75
2023/08/01 06:17:37;;;;;;;6.85;3.00;;;;;;;;;;5097324;28;20027;-75
2023/08/01 06:20:05;;;;;;;5.75;2.53;;;;;;;;;;5115273;28;20500;-75
2023/08/01 06:22:30;;;;;;;6.63;2.55;;;;;;;;;;5115484;28;20024;-75
2023/08/01 06:24:56;;;;;;;5.00;2.72;;;;;;;;;;5082711;28;20096;-75
2023/08/01 06:27:21;;;;;;;4.93;2.55;;;;;;;;;;5115388;28;20036;-75
2023/08/01 06:29:46;;;;;;;7.18;2.60;;;;;;;;;;5092024;28;20023;-76
2023/08/01 06:32:11;;;;;;;5.50;2.88;;;;;;;;;;5094738;28;20104;-75
2023/08/01 06:34:37;;;;;;;7.35;2.75;;;;;;;;;;5094315;28;20118;-75
2023/08/01 06:37:03;;;;;;;4.97;2.38;;;;;;;;;;5114475;28;20102;-75
2023/08/01 06:39:29;;;;;;;6.32;3.13;;;;;;;;;;5097010;28;20027;-75
2023/08/01 06:41:54;;;;;;;4.88;2.60;;;;;;;;;;5096769;28;20398;-74
2023/08/01 06:44:19;;;;;;;6.25;3.03;;;;;;;;;;5113554;28;20110;-74
2023/08/01 06:46:45;;;;;;;4.95;2.88;;;;;;;;;;5114966;28;20030;-74
2023/08/01 06:49:10;;;;;;;5.30;2.83;;;;;;;;;;5096482;28;20016;-75
2023/08/01 06:51:35;;;;;;;5.63;3.00;;;;;;;;;;5096723;28;20024;-74
2023/08/01 06:54:00;;;;;;;5.05;2.45;;;;;;;;;;5096250;28;20032;-74
2023/08/01 06:56:26;;;;;;;5.15;2.65;;;;;;;;;;5059274;28;20024;-74
2023/08/01 06:58:51;;;;;;;5.55;3.08;;;;;;;;;;5076242;28;20035;-74
2023/08/01 07:01:16;;;;;;;8.73;3.08;;;;;;;;;;5113337;28;20547;-74
2023/08/01 07:03:42;;;;;;;5.03;2.47;;;;;;;;;;5114500;28;20072;-74
2023/08/01 07:06:07;;;;;;;5.22;2.72;;;;;;;;;;5096676;28;20077;-74
2023/08/01 07:08:32;;;;;;;6.82;2.92;;;;;;;;;;5096407;28;20023;-74
2023/08/01 07:10:59;;;;;;;7.53;3.15;;;;;;;;;;5113748;28;20032;-74
2023/08/01 07:13:25;;;;;;;6.28;2.53;;;;;;;;;;5096612;28;20020;-74
2023/08/01 07:15:50;;;;;;;8.68;2.92;;;;;;;;;;5079055;28;20019;-75
2023/08/01 07:18:15;;;;;;;5.40;2.55;;;;;;;;;;5096179;28;20024;-74
2023/08/01 07:20:41;;;;;;;8.18;3.03;;;;;;;;;;5114132;28;20026;-74
2023/08/01 07:23:06;;;;;;;6.35;2.97;;;;;;;;;;5114229;28;20029;-74
2023/08/01 07:25:32;;;;;;;6.30;2.88;;;;;;;;;;5113665;28;20464;-74
2023/08/01 07:27:57;;;;;;;6.07;2.90;;;;;;;;;;5114071;28;20035;-74
2023/08/01 07:30:22;;;;;;;6.50;2.92;;;;;;;;;;5095931;28;20028;-74
2023/08/01 07:32:48;;;;;;;6.72;3.03;;;;;;;;;;5096067;28;20026;-74
2023/08/01 07:35:13;;;;;;;6.15;3.88;;;;;;;;;;5113875;28;20034;-74
2023/08/01 07:37:39;;;;;;;5.97;2.92;;;;;;;;;;5113596;28;20031;-74
2023/08/01 07:40:08;;;;;;;8.10;2.83;;;;;;;;;;5113850;28;20030;-74
2023/08/01 07:42:33;;;;;;;8.18;3.00;;;;;;;;;;5078471;28;20024;-74
2023/08/01 07:44:58;;;;;;;10.68;2.90;;;;;;;;;;5113917;28;20122;-74
2023/08/01 07:47:24;;;;;;;8.82;2.67;;;;;;;;;;5112958;28;20499;-74
2023/08/01 07:49:50;;;;;;;6.60;2.80;;;;;;;;;;5114105;28;20414;-74
2023/08/01 07:52:15;;;;;;;6.25;2.80;;;;;;;;;;5093410;28;20027;-74
2023/08/01 07:54:40;;;;;;;5.57;3.00;;;;;;;;;;5074963;28;20149;-74
2023/08/01 07:57:06;;;;;;;6.63;2.40;;;;;;;;;;5093046;28;20027;-74
2023/08/01 07:59:31;;;;;;;8.55;2.55;;;;;;;;;;5075635;28;20032;-75
2023/08/01 08:01:56;;;;;;;5.45;2.67;;;;;;;;;;5075201;28;20039;-74
2023/08/01 08:04:21;;;;;;;6.30;2.40;;;;;;;;;;5066240;28;20504;-74
2023/08/01 08:06:47;;;;;;;7.68;2.40;;;;;;;;;;5113118;28;20027;-74
2023/08/01 08:09:12;;;;;;;5.53;2.33;;;;;;;;;;5078528;28;20452;-74
2023/08/01 08:11:37;;;;;;;5.60;2.63;;;;;;;;;;5095954;28;20024;-74
2023/08/01 08:14:03;;;;;;;6.00;2.03;;;;;;;;;;5075079;28;20030;-74
2023/08/01 08:16:28;;;;;;;6.13;2.00;;;;;;;;;;5092562;28;20028;-74
2023/08/01 08:18:54;;;;;;;4.80;2.03;;;;;;;;;;5093008;28;20028;-74
2023/08/01 08:21:19;;;;;;;5.95;2.28;;;;;;;;;;5093018;28;20434;-75
2023/08/01 08:23:44;;;;;;;8.88;2.30;;;;;;;;;;5075791;28;20032;-74
2023/08/01 08:26:09;;;;;;;7.80;3.00;;;;;;;;;;5092729;28;20027;-75
2023/08/01 08:28:35;;;;;;;2.90;1.83;;;;;;;;;;5074801;28;20444;-75
2023/08/01 08:31:04;;;;;;;4.78;2.30;;;;;;;;;;5075134;28;20473;-75
2023/08/01 08:33:30;;;;;;;3.15;1.75;;;;;;;;;;5058341;28;20477;-75
2023/08/01 08:35:56;;;;;;;6.40;2.22;;;;;;;;;;5074975;28;20374;-75
2023/08/01 08:38:21;;;;;;;3.55;1.80;;;;;;;;;;5080965;28;20032;-74
2023/08/01 08:41:01;;;;;;;4.13;2.38;;;;;;;;;;5072238;28;20071;-74
2023/08/01 08:43:27;;;;;;;4.20;1.92;;;;;;;;;;5038104;28;20489;-74
2023/08/01 08:45:56;;;;;;;4.72;2.03;;;;;;;;;;5055021;28;20064;-75
2023/08/01 08:48:21;;;;;;;4.82;1.63;;;;;;;;;;5055272;28;20016;-74
2023/08/01 08:50:48;;;;;;;3.75;2.05;;;;;;;;;;5074373;28;20397;-74
2023/08/01 08:53:13;;;;;;;2.72;2.10;;;;;;;;;;5092532;28;20077;-74
2023/08/01 08:55:40;;;;;;;4.18;1.90;;;;;;;;;;5092990;28;20024;-74
2023/08/01 08:58:05;;;;;;;3.50;1.70;;;;;;;;;;5074356;28;20024;-74
2023/08/01 09:00:31;;;;;;;3.30;1.98;;;;;;;;;;5092626;28;20034;-74
2023/08/01 09:02:56;;;;;;;4.35;1.60;;;;;;;;;;5092620;28;20059;-74
2023/08/01 09:05:27;;;;;;;5.07;1.70;;;;;;;;;;5099960;28;20465;-73
2023/08/01 09:07:52;;;;;;;;;;;;;;;;;;5114425;28;20024;-73
2023/08/01 09:10:21;;;;;;;1.60;1.30;;;;;;;;;;5098276;28;20379;-73
2023/08/01 09:12:46;;;;;;;4.03;1.70;;;;;;;;;;5098329;28;20035;-74
2023/08/01 09:15:12;;;;;;;2.63;1.52;;;;;;;;;;5098781;28;20069;-74
2023/08/01 09:17:48;;;;;;;4.35;1.90;;;;;;;;;;5116038;28;20024;-74
2023/08/01 09:20:13;;;;;;;5.10;1.67;;;;;;;;;;5116932;28;20019;-74
2023/08/01 09:22:43;;;;;;;4.38;1.90;;;;;;;;;;5098111;28;20050;-74
2023/08/01 09:25:09;;;;;;;9.52;2.42;;;;;;;;;;5092061;28;20508;-73
2023/08/01 09:27:34;;;;;;;5.43;2.20;;;;;;;;;;5077779;28;20032;-74
2023/08/01 09:30:15;;;;;;;3.15;2.17;;;;;;;;;;5077815;28;20102;-74
2023/08/01 09:32:51;;;;;;;3.97;1.92;;;;;;;;;;5078178;28;20032;-74
2023/08/01 09:35:16;;;;;;;2.65;1.58;;;;;;;;;;5095598;28;20016;-74
2023/08/01 09:37:42;;;;;;;3.55;1.63;;;;;;;;;;5091915;28;20109;-73
2023/08/01 09:40:11;;;;;;;2.00;1.23;;;;;;;;;;5098036;28;20047;-74
2023/08/01 09:42:44;;;;;;;3.40;1.63;;;;;;;;;;5089993;28;20016;-75
2023/08/01 09:45:16;;;;;;;3.78;1.98;;;;;;;;;;5077402;28;20027;-74
2023/08/01 09:47:43;;;;;;;4.07;1.90;;;;;;;;;;5077714;28;20081;-74
2023/08/01 09:50:14;;;;;;;3.88;1.83;;;;;;;;;;5060442;28;20024;-74
2023/08/01 09:52:40;;;;;;;2.88;1.63;;;;;;;;;;5078017;28;20035;-74
2023/08/01 09:55:05;;;;;;;4.03;1.65;;;;;;;;;;5086710;28;20028;-74
2023/08/01 09:57:31;;;;;;;4.53;2.30;;;;;;;;;;5115967;28;20027;-74
2023/08/01 09:59:58;;;;;;;3.78;2.00;;;;;;;;;;5096799;28;20027;-75
2023/08/01 10:02:29;;;;;;;3.45;2.08;;;;;;;;;;5098021;28;20022;-75
2023/08/01 10:04:57;;;;;;;5.40;2.03;;;;;;;;;;5097247;28;20019;-74
2023/08/01 10:07:26;;;;;;;3.95;1.80;;;;;;;;;;5115745;28;20076;-74
2023/08/01 10:09:54;;;;;;;3.80;1.92;;;;;;;;;;5097477;28;20019;-75
2023/08/01 10:12:19;;;;;;;4.95;2.00;;;;;;;;;;5153499;22;20428;-74
2023/08/01 10:14:45;;;;;;;4.93;2.13;;;;;;;;;;5077332;28;20080;-74
2023/08/01 10:17:11;;;;;;;4.45;1.70;;;;;;;;;;5095562;28;20027;-74
2023/08/01 10:19:37;;;;;;;2.83;1.20;;;;;;;;;;5076981;28;20416;-74
2023/08/01 10:22:03;;;;;;;3.10;1.42;;;;;;;;;;5076672;28;20028;-74
2023/08/01 10:24:29;;;;;;;2.55;1.50;;;;;;;;;;5095353;28;20435;-74
2023/08/01 10:26:54;;;;;;;1.90;1.35;;;;;;;;;;5095055;28;20072;-74
2023/08/01 10:29:19;;;;;;;4.40;1.55;;;;;;;;;;5056811;28;20017;-73
2023/08/01 10:31:52;;;;;;;2.75;1.40;;;;;;;;;;5056454;28;20025;-73
2023/08/01 10:34:18;;;;;;;3.80;1.33;;;;;;;;;;5056655;28;20028;-74
2023/08/01 10:36:56;;;;;;;3.90;1.60;;;;;;;;;;5057101;28;20047;-75
2023/08/01 10:39:24;;;;;;;3.58;1.35;;;;;;;;;;5057018;28;20020;-75
2023/08/01 10:41:58;;;;;;;6.07;1.45;;;;;;;;;;5054805;28;20024;-76
2023/08/01 10:44:23;;;;;;;3.10;1.52;;;;;;;;;;5076418;28;20036;-76
2023/08/01 10:46:53;;;;;;;4.03;1.40;;;;;;;;;;5076368;28;20062;-74
2023/08/01 10:49:19;;;;;;;1.67;1.20;;;;;;;;;;5076732;28;20936;-74
2023/08/01 10:51:45;;;;;;;6.47;1.70;;;;;;;;;;5076770;28;20419;-74
2023/08/01 10:54:23;;;;;;;2.30;1.17;;;;;;;;;;5094253;28;20107;-74
2023/08/01 10:56:50;;;;;;;2.72;1.40;;;;;;;;;;5076920;28;20081;-74
2023/08/01 10:59:16;;;;;;;4.32;2.25;;;;;;;;;;5059680;28;20020;-74
2023/08/01 11:01:52;;;;;;;1.95;1.30;;;;;;;;;;5093677;28;20028;-74
2023/08/01 11:04:19;;;;;;;4.13;1.52;;;;;;;;;;5076884;28;20055;-75
2023/08/01 11:06:49;;;;;;;3.63;1.70;;;;;;;;;;5094243;28;20020;-74
2023/08/01 11:09:26;;;;;;;4.60;1.70;;;;;;;;;;5076337;28;20020;-74
2023/08/01 11:11:53;;;;;;;3.95;1.67;;;;;;;;;;5075935;28;20081;-74
2023/08/01 11:14:22;;;;;;;3.63;1.77;;;;;;;;;;5076436;28;20393;-74
2023/08/01 11:16:49;;;;;;;7.40;2.03;;;;;;;;;;5076001;28;20034;-74
2023/08/01 11:19:23;;;;;;;3.97;1.98;;;;;;;;;;5076093;28;20028;-74
2023/08/01 11:21:48;;;;;;;4.53;1.92;;;;;;;;;;5075800;28;20122;-74
2023/08/01 11:24:14;;;;;;;8.50;2.28;;;;;;;;;;5075646;28;20505;-74
2023/08/01 11:26:41;;;;;;;3.97;1.42;;;;;;;;;;5094091;28;20032;-75
2023/08/01 11:29:06;;;;;;;6.03;1.80;;;;;;;;;;5076423;28;20016;-74
2023/08/01 11:31:32;;;;;;;4.75;2.08;;;;;;;;;;5093358;28;20027;-75
2023/08/01 11:33:58;;;;;;;6.47;2.25;;;;;;;;;;5075687;28;20102;-75
2023/08/01 11:36:27;;;;;;;4.88;1.80;;;;;;;;;;5076094;28;20033;-75
2023/08/01 11:38:53;;;;;;;4.00;2.13;;;;;;;;;;5075651;28;20097;-75
2023/08/01 11:41:21;;;;;;;4.95;2.15;;;;;;;;;;5094170;28;20449;-75
2023/08/01 11:43:47;;;;;;;5.50;2.13;;;;;;;;;;5075471;28;20508;-75
2023/08/01 11:46:12;;;;;;;6.55;3.38;;;;;;;;;;5075634;28;20020;-75
2023/08/01 11:48:38;;;;;;;6.45;2.40;;;;;;;;;;5075756;28;20016;-75
2023/08/01 11:51:04;;;;;;;5.43;2.10;;;;;;;;;;5075596;28;20080;-74
2023/08/01 11:53:30;;;;;;;4.43;2.10;;;;;;;;;;5075579;28;20489;-75
2023/08/01 11:55:56;;;;;;;4.55;2.30;;;;;;;;;;5075692;28;20049;-74
2023/08/01 11:58:33;;;;;;;5.65;1.90;;;;;;;;;;5058868;28;20028;-74
2023/08/01 12:01:10;;;;;;;8.57;2.20;;;;;;;;;;5075069;28;20020;-75
2023/08/01 12:03:45;;;;;;;4.45;1.88;;;;;;;;;;5075514;28;20016;-75
2023/08/01 12:06:13;;;;;;;7.53;1.80;;;;;;;;;;5093567;28;20024;-74
2023/08/01 12:08:38;;;;;;;5.70;1.83;;;;;;;;;;5093677;28;20046;-74
2023/08/01 12:11:03;;;;;;;5.97;1.73;;;;;;;;;;5076037;28;20485;-74
2023/08/01 12:13:30;;;;;;;3.75;1.52;;;;;;;;;;5093673;28;20028;-74
2023/08/01 12:15:56;;;;;;;3.55;1.63;;;;;;;;;;5060777;28;20485;-74
2023/08/01 12:18:22;;;;;;;8.25;1.77;;;;;;;;;;5076945;28;20030;-74
2023/08/01 12:20:48;;;;;;;6.47;2.45;;;;;;;;;;5075607;28;20102;-74
2023/08/01 12:23:13;;;;;;;5.60;2.13;;;;;;;;;;5093291;28;20111;-74
2023/08/01 12:25:39;;;;;;;4.18;1.55;;;;;;;;;;5075550;28;20028;-74
2023/08/01 12:28:04;;;;;;;6.45;1.50;;;;;;;;;;5093017;28;20456;-73
2023/08/01 12:30:30;;;;;;;7.55;1.98;;;;;;;;;;5075481;28;20024;-74
2023/08/01 12:32:55;;;;;;;4.63;1.83;;;;;;;;;;5058330;28;20085;-73
2023/08/01 12:35:20;;;;;;;4.78;1.70;;;;;;;;;;5075255;28;20020;-74
2023/08/01 12:37:47;;;;;;;4.10;1.70;;;;;;;;;;5058759;28;20493;-74
2023/08/01 12:40:12;;;;;;;5.07;1.90;;;;;;;;;;5074849;28;20032;-74
2023/08/01 12:42:37;;;;;;;3.85;2.10;;;;;;;;;;5094710;28;20027;-74
2023/08/01 12:45:03;;;;;;;5.00;1.77;;;;;;;;;;5097765;28;20028;-74
2023/08/01 12:47:28;;;;;;;4.32;2.00;;;;;;;;;;5097525;28;20102;-74
2023/08/01 12:49:54;;;;;;;10.25;2.55;;;;;;;;;;5078415;28;20068;-74
2023/08/01 12:52:26;;;;;;;6.88;2.60;;;;;;;;;;5097401;28;20064;-74
2023/08/01 12:54:51;;;;;;;8.57;2.20;;;;;;;;;;5079424;28;20473;-75
2023/08/01 12:57:16;;;;;;;4.10;1.70;;;;;;;;;;5078903;28;20085;-75
2023/08/01 12:59:44;;;;;;;4.97;1.65;;;;;;;;;;5096642;28;20030;-74
2023/08/01 13:02:10;;;;;;;2.30;1.73;;;;;;;;;;5078051;28;20020;-74
2023/08/01 13:04:35;;;;;;;2.95;1.73;;;;;;;;;;5078853;28;20043;-74
2023/08/01 13:07:00;;;;;;;3.88;1.88;;;;;;;;;;5096668;28;20026;-74
2023/08/01 13:09:26;;;;;;;5.50;1.70;;;;;;;;;;5078762;28;20108;-74
2023/08/01 13:11:51;;;;;;;5.40;1.42;;;;;;;;;;5061196;28;20032;-74
2023/08/01 13:14:17;;;;;;;5.03;1.50;;;;;;;;;;5061794;28;20114;-74
2023/08/01 13:16:42;;;;;;;5.28;1.20;;;;;;;;;;5078214;28;20077;-74
2023/08/01 13:19:07;;;;;;;2.33;1.10;;;;;;;;;;5078404;28;20381;-74
2023/08/01 13:21:34;;;;;;;5.32;1.45;;;;;;;;;;5104150;22;20034;-73
2023/08/01 13:23:59;;;;;;;4.28;1.33;;;;;;;;;;5060743;28;20036;-73
2023/08/01 13:26:25;;;;;;;5.97;1.13;;;;;;;;;;5096156;28;20077;-74
2023/08/01 13:28:50;;;;;;;7.40;1.60;;;;;;;;;;5096833;28;20020;-74
2023/08/01 13:31:15;;;;;;;3.40;1.30;;;;;;;;;;5096299;28;20484;-74
2023/08/01 13:33:41;;;;;;;5.00;1.50;;;;;;;;;;5077339;28;20016;-74
2023/08/01 13:36:06;;;;;;;3.55;1.30;;;;;;;;;;5077988;28;20031;-74
2023/08/01 13:38:31;;;;;;;2.60;1.40;;;;;;;;;;5078133;28;20059;-74
2023/08/01 13:41:01;;;;;;;2.17;1.50;;;;;;;;;;5072253;28;20038;-74
2023/08/01 13:43:26;;;;;;;4.32;1.70;;;;;;;;;;5063920;28;20131;-74
2023/08/01 13:45:52;;;;;;;5.78;1.83;;;;;;;;;;5088269;28;20561;-73
2023/08/01 13:48:18;;;;;;;4.03;1.38;;;;;;;;;;5088093;28;20483;-74
2023/08/01 13:50:43;;;;;;;3.35;1.70;;;;;;;;;;5067485;28;20063;-75
2023/08/01 13:53:11;;;;;;;4.25;1.42;;;;;;;;;;5079770;28;20059;-75
2023/08/01 13:55:37;;;;;;;4.82;1.67;;;;;;;;;;5063931;28;20033;-74
2023/08/01 13:58:02;;;;;;;3.78;1.50;;;;;;;;;;5070020;28;20024;-74
2023/08/01 14:00:28;;;;;;;4.45;1.55;;;;;;;;;;5090393;28;20424;-75
2023/08/01 14:02:53;;;;;;;7.20;1.70;;;;;;;;;;5095241;28;20103;-75
2023/08/01 14:05:18;;;;;;;3.88;1.63;;;;;;;;;;5094780;28;20077;-75
2023/08/01 14:07:44;;;;;;;4.82;1.63;;;;;;;;;;5095092;28;20031;-76
2023/08/01 14:10:09;;;;;;;5.75;1.75;;;;;;;;;;5095096;28;20043;-76
2023/08/01 14:12:34;;;;;;;3.58;1.50;;;;;;;;;;5095049;28;20418;-73
2023/08/01 14:15:00;;;;;;;3.45;1.58;;;;;;;;;;5094394;28;20023;-75
2023/08/01 14:17:25;;;;;;;3.25;2.22;;;;;;;;;;5094960;28;20016;-75
2023/08/01 14:19:50;;;;;;;10.90;2.17;;;;;;;;;;5095065;28;20473;-76
2023/08/01 14:22:16;;;;;;;6.18;1.70;;;;;;;;;;5056578;28;20032;-76
2023/08/01 14:24:42;;;;;;;3.97;1.80;;;;;;;;;;5076002;28;20493;-76
2023/08/01 14:27:07;;;;;;;5.95;1.88;;;;;;;;;;5076143;28;20035;-75
2023/08/01 14:29:33;;;;;;;6.43;1.70;;;;;;;;;;5076690;28;20027;-76
2023/08/01 14:31:58;;;;;;;3.40;1.73;;;;;;;;;;5076584;28;20473;-75
2023/08/01 14:34:23;;;;;;;5.10;2.05;;;;;;;;;;5094037;28;20026;-75